sensor_id;sensor_type;location;lat;lon;timestamp;pressure;altitude;pressure_sealevel;temperature;humidity
22104;BME280;11218;48.886;9.426;2023-01-23T00:01:41;99219.16;;;0.41;95.23
22104;BME280;11218;48.886;9.426;2023-01-23T00:04:11;99223.75;;;0.39;95.40
22104;BME280;11218;48.886;9.426;2023-01-23T00:06:41;99222.78;;;0.40;95.33
22104;BME280;11218;48.886;9.426;2023-01-23T00:09:10;99220.28;;;0.39;94.68
22104;BME280;11218;48.886;9.426;2023-01-23T00:11:38;99217.63;;;0.39;95.49
22104;BME280;11218;48.886;9.426;2023-01-23T00:14:06;99222.94;;;0.39;94.70
22104;BME280;11218;48.886;9.426;2023-01-23T00:16:35;99223.75;;;0.39;94.85
22104;BME280;11218;48.886;9.426;2023-01-23T00:19:04;99222.09;;;0.38;94.71
22104;BME280;11218;48.886;9.426;2023-01-23T00:21:32;99218.47;;;0.39;94.70
22104;BME280;11218;48.886;9.426;2023-01-23T00:24:02;99219.31;;;0.40;95.34
22104;BME280;11218;48.886;9.426;2023-01-23T00:26:31;99217.47;;;0.40;95.42
22104;BME280;11218;48.886;9.426;2023-01-23T00:29:00;99229.91;;;0.40;95.42
22104;BME280;11218;48.886;9.426;2023-01-23T00:31:30;99225.44;;;0.40;94.89
22104;BME280;11218;48.886;9.426;2023-01-23T00:34:02;99225.44;;;0.40;94.85
22104;BME280;11218;48.886;9.426;2023-01-23T00:36:33;99229.59;;;0.43;94.69
22104;BME280;11218;48.886;9.426;2023-01-23T00:39:08;99225.44;;;0.40;94.94
22104;BME280;11218;48.886;9.426;2023-01-23T00:41:38;99223.91;;;0.38;94.99
22104;BME280;11218;48.886;9.426;2023-01-23T00:44:08;99222.63;;;0.42;95.79
22104;BME280;11218;48.886;9.426;2023-01-23T00:46:36;99228.91;;;0.41;94.55
22104;BME280;11218;48.886;9.426;2023-01-23T00:49:05;99219.16;;;0.41;94.90
22104;BME280;11218;48.886;9.426;2023-01-23T00:51:34;99227.59;;;0.45;95.35
22104;BME280;11218;48.886;9.426;2023-01-23T00:54:05;99219.81;;;0.43;94.55
22104;BME280;11218;48.886;9.426;2023-01-23T00:56:34;99225.78;;;0.45;95.31
22104;BME280;11218;48.886;9.426;2023-01-23T00:59:03;99218.53;;;0.47;95.70
22104;BME280;11218;48.886;9.426;2023-01-23T01:01:32;99214.06;;;0.48;94.56
22104;BME280;11218;48.886;9.426;2023-01-23T01:04:01;99222.69;;;0.50;94.65
22104;BME280;11218;48.886;9.426;2023-01-23T01:06:29;99223.66;;;0.49;94.69
22104;BME280;11218;48.886;9.426;2023-01-23T01:08:59;99231.59;;;0.49;94.49
22104;BME280;11218;48.886;9.426;2023-01-23T01:11:29;99242.19;;;0.49;94.86
22104;BME280;11218;48.886;9.426;2023-01-23T01:13:59;99236.06;;;0.48;94.60
22104;BME280;11218;48.886;9.426;2023-01-23T01:16:28;99252.63;;;0.50;94.48
22104;BME280;11218;48.886;9.426;2023-01-23T01:18:57;99250.47;;;0.46;94.36
22104;BME280;11218;48.886;9.426;2023-01-23T01:21:26;99255.59;;;0.47;93.85
22104;BME280;11218;48.886;9.426;2023-01-23T01:23:54;99253.94;;;0.46;94.27
22104;BME280;11218;48.886;9.426;2023-01-23T01:26:24;99254.63;;;0.48;93.77
22104;BME280;11218;48.886;9.426;2023-01-23T01:28:54;99258.41;;;0.46;94.36
22104;BME280;11218;48.886;9.426;2023-01-23T01:31:22;99255.06;;;0.44;95.39
22104;BME280;11218;48.886;9.426;2023-01-23T01:33:50;99258.56;;;0.44;94.21
22104;BME280;11218;48.886;9.426;2023-01-23T01:36:20;99271.63;;;0.46;94.95
22104;BME280;11218;48.886;9.426;2023-01-23T01:38:49;99264.69;;;0.45;95.40
22104;BME280;11218;48.886;9.426;2023-01-23T01:41:20;99268.84;;;0.47;94.55
22104;BME280;11218;48.886;9.426;2023-01-23T01:43:48;99266.19;;;0.47;94.95
22104;BME280;11218;48.886;9.426;2023-01-23T01:46:20;99268.84;;;0.47;95.08
22104;BME280;11218;48.886;9.426;2023-01-23T01:49:05;99267.84;;;0.48;94.76
22104;BME280;11218;48.886;9.426;2023-01-23T01:51:38;99268.69;;;0.49;94.10
22104;BME280;11218;48.886;9.426;2023-01-23T01:54:12;99263.91;;;0.52;94.53
22104;BME280;11218;48.886;9.426;2023-01-23T01:56:46;99268.53;;;0.50;94.61
22104;BME280;11218;48.886;9.426;2023-01-23T01:59:16;99274.50;;;0.52;94.96
22104;BME280;11218;48.886;9.426;2023-01-23T02:01:50;99264.75;;;0.53;93.84
22104;BME280;11218;48.886;9.426;2023-01-23T02:04:20;99268.22;;;0.53;93.67
22104;BME280;11218;48.886;9.426;2023-01-23T02:06:49;99265.72;;;0.52;93.99
22104;BME280;11218;48.886;9.426;2023-01-23T02:09:21;99269.38;;;0.51;94.75
22104;BME280;11218;48.886;9.426;2023-01-23T02:11:51;99275.50;;;0.51;93.75
22104;BME280;11218;48.886;9.426;2023-01-23T02:14:20;99273.66;;;0.52;94.63
22104;BME280;11218;48.886;9.426;2023-01-23T02:16:53;99271.69;;;0.54;93.69
22104;BME280;11218;48.886;9.426;2023-01-23T02:19:34;99266.72;;;0.51;93.97
22104;BME280;11218;48.886;9.426;2023-01-23T02:22:18;99266.56;;;0.52;94.38
22104;BME280;11218;48.886;9.426;2023-01-23T02:24:53;99271.03;;;0.52;94.16
22104;BME280;11218;48.886;9.426;2023-01-23T02:27:28;99269.06;;;0.54;93.79
22104;BME280;11218;48.886;9.426;2023-01-23T02:29:56;99263.91;;;0.52;94.35
22104;BME280;11218;48.886;9.426;2023-01-23T02:32:25;99259.75;;;0.50;94.17
22104;BME280;11218;48.886;9.426;2023-01-23T02:34:56;99256.28;;;0.49;95.28
22104;BME280;11218;48.886;9.426;2023-01-23T02:37:28;99258.91;;;0.49;94.45
22104;BME280;11218;48.886;9.426;2023-01-23T02:39:59;99262.56;;;0.48;94.01
22104;BME280;11218;48.886;9.426;2023-01-23T02:42:31;99258.91;;;0.49;94.19
22104;BME280;11218;48.886;9.426;2023-01-23T02:45:01;99260.59;;;0.50;94.48
22104;BME280;11218;48.886;9.426;2023-01-23T02:47:31;99268.38;;;0.52;93.86
22104;BME280;11218;48.886;9.426;2023-01-23T02:49:59;99272.69;;;0.53;93.89
22104;BME280;11218;48.886;9.426;2023-01-23T02:52:27;99263.06;;;0.52;94.73
22104;BME280;11218;48.886;9.426;2023-01-23T02:54:57;99273.50;;;0.53;94.96
22104;BME280;11218;48.886;9.426;2023-01-23T02:57:25;99268.22;;;0.53;94.51
22104;BME280;11218;48.886;9.426;2023-01-23T02:59:54;99269.06;;;0.54;95.25
22104;BME280;11218;48.886;9.426;2023-01-23T03:02:40;99269.88;;;0.54;94.71
22104;BME280;11218;48.886;9.426;2023-01-23T03:05:09;99270.72;;;0.55;95.41
22104;BME280;11218;48.886;9.426;2023-01-23T03:07:37;99283.13;;;0.54;95.04
22104;BME280;11218;48.886;9.426;2023-01-23T03:10:06;99275.84;;;0.56;94.70
22104;BME280;11218;48.886;9.426;2023-01-23T03:12:35;99275.19;;;0.54;95.35
22104;BME280;11218;48.886;9.426;2023-01-23T03:15:08;99272.91;;;0.59;94.63
22104;BME280;11218;48.886;9.426;2023-01-23T03:17:36;99274.88;;;0.57;94.25
22104;BME280;11218;48.886;9.426;2023-01-23T03:20:04;99273.50;;;0.53;95.25
22104;BME280;11218;48.886;9.426;2023-01-23T03:22:33;99267.38;;;0.53;95.02
22104;BME280;11218;48.886;9.426;2023-01-23T03:25:02;99264.06;;;0.51;94.29
22104;BME280;11218;48.886;9.426;2023-01-23T03:27:30;99257.09;;;0.50;94.12
22104;BME280;11218;48.886;9.426;2023-01-23T03:29:59;99257.09;;;0.50;93.97
22104;BME280;11218;48.886;9.426;2023-01-23T03:32:44;99258.91;;;0.49;94.97
22104;BME280;11218;48.886;9.426;2023-01-23T03:35:14;99256.13;;;0.51;94.99
22104;BME280;11218;48.886;9.426;2023-01-23T03:37:43;99254.31;;;0.51;94.32
22104;BME280;11218;48.886;9.426;2023-01-23T03:40:15;99250.00;;;0.50;95.27
22104;BME280;11218;48.886;9.426;2023-01-23T03:43:02;99253.00;;;0.55;94.37
22104;BME280;11218;48.886;9.426;2023-01-23T03:45:30;99250.50;;;0.54;94.44
22104;BME280;11218;48.886;9.426;2023-01-23T03:47:59;99250.66;;;0.52;94.33
22104;BME280;11218;48.886;9.426;2023-01-23T03:50:28;99260.28;;;0.53;94.01
22104;BME280;11218;48.886;9.426;2023-01-23T03:52:56;99255.97;;;0.52;94.05
22104;BME280;11218;48.886;9.426;2023-01-23T03:55:24;99254.00;;;0.54;94.66
22104;BME280;11218;48.886;9.426;2023-01-23T03:57:53;99253.16;;;0.54;94.39
22104;BME280;11218;48.886;9.426;2023-01-23T04:00:21;99266.41;;;0.54;94.99
22104;BME280;11218;48.886;9.426;2023-01-23T04:02:49;99260.28;;;0.53;93.83
22104;BME280;11218;48.886;9.426;2023-01-23T04:05:19;99254.00;;;0.54;94.55
22104;BME280;11218;48.886;9.426;2023-01-23T04:07:47;99263.75;;;0.54;94.92
22104;BME280;11218;48.886;9.426;2023-01-23T04:10:16;99270.72;;;0.55;93.66
22104;BME280;11218;48.886;9.426;2023-01-23T04:12:44;99278.81;;;0.53;94.52
22104;BME280;11218;48.886;9.426;2023-01-23T04:15:12;99281.31;;;0.55;93.81
22104;BME280;11218;48.886;9.426;2023-01-23T04:17:40;99284.94;;;0.54;94.12
22104;BME280;11218;48.886;9.426;2023-01-23T04:20:09;99285.47;;;0.57;94.68
22104;BME280;11218;48.886;9.426;2023-01-23T04:22:39;99292.41;;;0.58;93.99
22104;BME280;11218;48.886;9.426;2023-01-23T04:25:07;99291.75;;;0.56;93.99
22104;BME280;11218;48.886;9.426;2023-01-23T04:27:36;99295.22;;;0.57;94.42
22104;BME280;11218;48.886;9.426;2023-01-23T04:30:04;99296.88;;;0.58;94.09
22104;BME280;11218;48.886;9.426;2023-01-23T04:32:33;99304.84;;;0.58;94.09
22104;BME280;11218;48.886;9.426;2023-01-23T04:35:01;99300.22;;;0.60;94.59
22104;BME280;11218;48.886;9.426;2023-01-23T04:37:29;99303.19;;;0.57;94.66
22104;BME280;11218;48.886;9.426;2023-01-23T04:39:59;99296.06;;;0.57;94.00
22104;BME280;11218;48.886;9.426;2023-01-23T04:42:27;99298.41;;;0.60;94.25
22104;BME280;11218;48.886;9.426;2023-01-23T04:44:56;99295.59;;;0.62;92.73
22104;BME280;11218;48.886;9.426;2023-01-23T04:47:24;99307.84;;;0.63;93.53
22104;BME280;11218;48.886;9.426;2023-01-23T04:49:52;99308.00;;;0.61;92.96
22104;BME280;11218;48.886;9.426;2023-01-23T04:52:20;99307.19;;;0.61;93.52
22104;BME280;11218;48.886;9.426;2023-01-23T04:54:48;99308.00;;;0.61;93.36
22104;BME280;11218;48.886;9.426;2023-01-23T04:57:17;99305.34;;;0.61;94.57
22104;BME280;11218;48.886;9.426;2023-01-23T04:59:45;99298.41;;;0.60;94.25
22104;BME280;11218;48.886;9.426;2023-01-23T05:02:13;99294.91;;;0.60;93.37
22104;BME280;11218;48.886;9.426;2023-01-23T05:04:42;99298.41;;;0.60;93.32
22104;BME280;11218;48.886;9.426;2023-01-23T05:07:10;99308.47;;;0.57;93.71
22104;BME280;11218;48.886;9.426;2023-01-23T05:09:39;99300.84;;;0.54;93.98
22104;BME280;11218;48.886;9.426;2023-01-23T05:12:07;99300.69;;;0.55;93.15
22104;BME280;11218;48.886;9.426;2023-01-23T05:14:37;99302.50;;;0.55;93.70
22104;BME280;11218;48.886;9.426;2023-01-23T05:17:05;99302.03;;;0.59;93.02
22104;BME280;11218;48.886;9.426;2023-01-23T05:19:33;99308.78;;;0.54;93.26
22104;BME280;11218;48.886;9.426;2023-01-23T05:22:02;99315.06;;;0.53;93.83
22104;BME280;11218;48.886;9.426;2023-01-23T05:24:30;99317.03;;;0.51;93.54
22104;BME280;11218;48.886;9.426;2023-01-23T05:26:58;99309.25;;;0.49;93.68
22104;BME280;11218;48.886;9.426;2023-01-23T05:29:26;99313.72;;;0.49;93.68
22104;BME280;11218;48.886;9.426;2023-01-23T05:31:56;99310.91;;;0.50;93.70
22104;BME280;11218;48.886;9.426;2023-01-23T05:34:24;99312.03;;;0.48;93.33
22104;BME280;11218;48.886;9.426;2023-01-23T05:36:52;99306.59;;;0.49;93.33
22104;BME280;11218;48.886;9.426;2023-01-23T05:39:20;99315.53;;;0.48;94.53
22104;BME280;11218;48.886;9.426;2023-01-23T05:41:48;99313.72;;;0.49;93.37
22104;BME280;11218;48.886;9.426;2023-01-23T05:44:17;99310.75;;;0.52;93.31
22104;BME280;11218;48.886;9.426;2023-01-23T05:46:45;99317.41;;;0.56;92.99
22104;BME280;11218;48.886;9.426;2023-01-23T05:49:14;99314.69;;;0.48;93.36
22104;BME280;11218;48.886;9.426;2023-01-23T05:51:42;99314.53;;;0.49;94.20
22104;BME280;11218;48.886;9.426;2023-01-23T05:54:10;99324.59;;;0.46;94.16
22104;BME280;11218;48.886;9.426;2023-01-23T05:56:39;99320.00;;;0.48;93.34
22104;BME280;11218;48.886;9.426;2023-01-23T05:59:07;99324.81;;;0.52;94.57
22104;BME280;11218;48.886;9.426;2023-01-23T06:01:36;99318.09;;;0.58;92.91
22104;BME280;11218;48.886;9.426;2023-01-23T06:04:04;99329.66;;;0.57;93.15
22104;BME280;11218;48.886;9.426;2023-01-23T06:06:34;99327.38;;;0.62;92.82
22104;BME280;11218;48.886;9.426;2023-01-23T06:09:02;99323.50;;;0.74;92.66
22104;BME280;11218;48.886;9.426;2023-01-23T06:11:30;99317.31;;;0.65;92.31
22104;BME280;11218;48.886;9.426;2023-01-23T06:13:58;99320.13;;;0.64;93.16
22104;BME280;11218;48.886;9.426;2023-01-23T06:16:27;99330.94;;;0.71;93.30
22104;BME280;11218;48.886;9.426;2023-01-23T06:18:55;99334.56;;;0.70;92.54
22104;BME280;11218;48.886;9.426;2023-01-23T06:21:23;99328.44;;;0.69;92.89
22104;BME280;11218;48.886;9.426;2023-01-23T06:23:53;99332.69;;;0.62;93.02
22104;BME280;11218;48.886;9.426;2023-01-23T06:26:21;99343.66;;;0.67;92.17
22104;BME280;11218;48.886;9.426;2023-01-23T06:28:49;99350.44;;;0.70;93.19
22104;BME280;11218;48.886;9.426;2023-01-23T06:31:16;99345.78;;;0.63;92.27
22104;BME280;11218;48.886;9.426;2023-01-23T06:33:48;99359.00;;;0.63;93.55
22104;BME280;11218;48.886;9.426;2023-01-23T06:36:17;99364.94;;;0.57;93.94
22104;BME280;11218;48.886;9.426;2023-01-23T06:38:45;99370.66;;;0.71;92.34
22104;BME280;11218;48.886;9.426;2023-01-23T06:41:15;99369.00;;;0.70;93.43
22104;BME280;11218;48.886;9.426;2023-01-23T06:43:45;99373.09;;;0.64;93.01
22104;BME280;11218;48.886;9.426;2023-01-23T06:46:13;99383.84;;;0.62;92.79
22104;BME280;11218;48.886;9.426;2023-01-23T06:48:42;99381.34;;;0.61;93.29
22104;BME280;11218;48.886;9.426;2023-01-23T06:51:10;99384.31;;;0.58;93.55
22104;BME280;11218;48.886;9.426;2023-01-23T06:53:38;99388.63;;;0.59;93.36
22104;BME280;11218;48.886;9.426;2023-01-23T06:56:07;99393.59;;;0.62;94.59
22104;BME280;11218;48.886;9.426;2023-01-23T06:58:36;99393.75;;;0.60;93.83
22104;BME280;11218;48.886;9.426;2023-01-23T07:01:09;99401.94;;;0.67;93.80
22104;BME280;11218;48.886;9.426;2023-01-23T07:03:38;99394.28;;;0.64;92.71
22104;BME280;11218;48.886;9.426;2023-01-23T07:06:06;99406.09;;;0.70;93.19
22104;BME280;11218;48.886;9.426;2023-01-23T07:08:35;99405.41;;;0.68;93.48
22104;BME280;11218;48.886;9.426;2023-01-23T07:11:03;99399.66;;;0.72;93.26
22104;BME280;11218;48.886;9.426;2023-01-23T07:13:32;99408.88;;;0.68;92.43
22104;BME280;11218;48.886;9.426;2023-01-23T07:16:01;99412.91;;;0.72;92.54
22104;BME280;11218;48.886;9.426;2023-01-23T07:18:30;99413.91;;;0.79;92.48
22104;BME280;11218;48.886;9.426;2023-01-23T07:20:58;99414.91;;;0.78;92.11
22104;BME280;11218;48.886;9.426;2023-01-23T07:23:26;99410.41;;;0.71;92.62
22104;BME280;11218;48.886;9.426;2023-01-23T07:25:59;99415.69;;;0.71;93.41
22104;BME280;11218;48.886;9.426;2023-01-23T07:28:29;99424.31;;;0.73;93.35
22104;BME280;11218;48.886;9.426;2023-01-23T07:30:58;99421.19;;;0.77;92.68
22104;BME280;11218;48.886;9.426;2023-01-23T07:33:27;99426.97;;;0.73;93.06
22104;BME280;11218;48.886;9.426;2023-01-23T07:35:55;99426.31;;;0.71;93.49
22104;BME280;11218;48.886;9.426;2023-01-23T07:38:24;99432.72;;;0.68;93.02
22104;BME280;11218;48.886;9.426;2023-01-23T07:40:57;99431.78;;;0.77;93.93
22104;BME280;11218;48.886;9.426;2023-01-23T07:43:26;99421.53;;;0.74;93.79
22104;BME280;11218;48.886;9.426;2023-01-23T07:45:57;99427.63;;;0.75;93.41
22104;BME280;11218;48.886;9.426;2023-01-23T07:48:25;99423.59;;;0.88;92.09
22104;BME280;11218;48.886;9.426;2023-01-23T07:50:55;99416.13;;;0.84;92.22
22104;BME280;11218;48.886;9.426;2023-01-23T07:53:23;99422.41;;;0.83;91.87
22104;BME280;11218;48.886;9.426;2023-01-23T07:55:51;99428.38;;;0.85;93.07
22104;BME280;11218;48.886;9.426;2023-01-23T07:58:19;99427.00;;;0.98;90.60
22104;BME280;11218;48.886;9.426;2023-01-23T08:00:47;99422.91;;;0.86;92.03
22104;BME280;11218;48.886;9.426;2023-01-23T08:03:15;99416.75;;;1.04;90.02
22104;BME280;11218;48.886;9.426;2023-01-23T08:05:47;99415.94;;;1.03;89.88
22104;BME280;11218;48.886;9.426;2023-01-23T08:08:16;99412.69;;;0.91;90.00
22104;BME280;11218;48.886;9.426;2023-01-23T08:10:45;99412.38;;;0.94;90.53
22104;BME280;11218;48.886;9.426;2023-01-23T08:13:13;99416.63;;;0.87;91.52
22104;BME280;11218;48.886;9.426;2023-01-23T08:15:43;99416.69;;;0.95;90.74
22104;BME280;11218;48.886;9.426;2023-01-23T08:18:12;99419.66;;;0.92;90.05
22104;BME280;11218;48.886;9.426;2023-01-23T08:20:41;99418.97;;;0.90;89.94
22104;BME280;11218;48.886;9.426;2023-01-23T08:23:09;99421.63;;;0.90;90.56
22104;BME280;11218;48.886;9.426;2023-01-23T08:25:38;99420.78;;;0.90;90.80
22104;BME280;11218;48.886;9.426;2023-01-23T08:28:06;99420.56;;;1.01;89.18
22104;BME280;11218;48.886;9.426;2023-01-23T08:30:34;99413.81;;;1.07;88.11
22104;BME280;11218;48.886;9.426;2023-01-23T08:33:02;99413.22;;;0.95;88.24
22104;BME280;11218;48.886;9.426;2023-01-23T08:35:31;99420.41;;;1.03;87.94
22104;BME280;11218;48.886;9.426;2023-01-23T08:37:59;99411.31;;;1.05;87.31
22104;BME280;11218;48.886;9.426;2023-01-23T08:40:28;99411.47;;;1.04;87.02
22104;BME280;11218;48.886;9.426;2023-01-23T08:42:59;99413.81;;;1.07;86.60
22104;BME280;11218;48.886;9.426;2023-01-23T08:45:29;99407.81;;;1.05;83.31
22104;BME280;11218;48.886;9.426;2023-01-23T08:47:57;99406.75;;;1.15;82.52
22104;BME280;11218;48.886;9.426;2023-01-23T08:50:25;99411.53;;;1.12;83.06
22104;BME280;11218;48.886;9.426;2023-01-23T08:52:53;99401.91;;;1.11;83.55
22104;BME280;11218;48.886;9.426;2023-01-23T08:55:22;99415.69;;;1.14;83.57
22104;BME280;11218;48.886;9.426;2023-01-23T08:57:50;99406.28;;;1.20;83.32
22104;BME280;11218;48.886;9.426;2023-01-23T09:00:21;99422.75;;;1.31;82.83
22104;BME280;11218;48.886;9.426;2023-01-23T09:02:49;99422.53;;;1.25;83.41
22104;BME280;11218;48.886;9.426;2023-01-23T09:05:18;99424.88;;;1.28;83.87
22104;BME280;11218;48.886;9.426;2023-01-23T09:07:47;99419.94;;;1.33;82.82
22104;BME280;11218;48.886;9.426;2023-01-23T09:10:15;99415.78;;;1.30;82.74
22104;BME280;11218;48.886;9.426;2023-01-23T09:12:44;99418.97;;;1.34;81.95
22104;BME280;11218;48.886;9.426;2023-01-23T09:15:12;99415.47;;;1.34;81.65
22104;BME280;11218;48.886;9.426;2023-01-23T09:17:41;99414.50;;;1.35;81.90
22104;BME280;11218;48.886;9.426;2023-01-23T09:20:10;99420.56;;;1.27;81.97
22104;BME280;11218;48.886;9.426;2023-01-23T09:22:38;99420.09;;;1.31;82.66
22104;BME280;11218;48.886;9.426;2023-01-23T09:25:07;99432.06;;;1.36;82.24
22104;BME280;11218;48.886;9.426;2023-01-23T09:27:35;99439.28;;;1.25;82.44
22104;BME280;11218;48.886;9.426;2023-01-23T09:30:04;99439.28;;;1.25;84.52
22104;BME280;11218;48.886;9.426;2023-01-23T09:32:33;99421.41;;;1.27;82.21
22104;BME280;11218;48.886;9.426;2023-01-23T09:35:02;99430.19;;;1.28;82.90
22104;BME280;11218;48.886;9.426;2023-01-23T09:37:31;99427.53;;;1.28;82.36
22104;BME280;11218;48.886;9.426;2023-01-23T09:40:27;99438.97;;;1.28;83.05
22104;BME280;11218;48.886;9.426;2023-01-23T09:42:59;99435.50;;;1.28;83.90
22104;BME280;11218;48.886;9.426;2023-01-23T09:45:31;99432.38;;;1.33;83.79
22104;BME280;11218;48.886;9.426;2023-01-23T09:48:08;99435.84;;;1.33;83.50
22104;BME280;11218;48.886;9.426;2023-01-23T09:50:51;99431.53;;;1.32;82.61
22104;BME280;11218;48.886;9.426;2023-01-23T09:53:22;99438.78;;;1.22;82.69
22104;BME280;11218;48.886;9.426;2023-01-23T09:55:58;99444.75;;;1.24;83.11
22104;BME280;11218;48.886;9.426;2023-01-23T09:58:35;99443.59;;;1.26;83.50
22104;BME280;11218;48.886;9.426;2023-01-23T10:01:07;99440.34;;;1.33;84.57
22104;BME280;11218;48.886;9.426;2023-01-23T10:03:36;99448.03;;;1.44;82.45
22104;BME280;11218;48.886;9.426;2023-01-23T10:06:18;99432.28;;;1.42;82.95
22104;BME280;11218;48.886;9.426;2023-01-23T10:09:00;99430.75;;;1.40;83.74
22104;BME280;11218;48.886;9.426;2023-01-23T10:11:39;99429.16;;;1.47;83.12
22104;BME280;11218;48.886;9.426;2023-01-23T10:14:38;99436.13;;;1.56;82.03
22104;BME280;11218;48.886;9.426;2023-01-23T10:17:13;99428.84;;;1.58;82.01
22104;BME280;11218;48.886;9.426;2023-01-23T10:20:00;99428.56;;;1.69;80.98
22104;BME280;11218;48.886;9.426;2023-01-23T10:22:41;99432.94;;;1.78;81.38
22104;BME280;11218;48.886;9.426;2023-01-23T10:25:15;99428.63;;;1.77;80.58
22104;BME280;11218;48.886;9.426;2023-01-23T10:27:48;99432.56;;;1.73;80.72
22104;BME280;11218;48.886;9.426;2023-01-23T10:30:24;99414.19;;;1.80;81.53
22104;BME280;11218;48.886;9.426;2023-01-23T10:32:57;99402.59;;;1.81;81.51
22104;BME280;11218;48.886;9.426;2023-01-23T10:35:31;99414.38;;;1.86;80.36
22104;BME280;11218;48.886;9.426;2023-01-23T10:38:11;99422.66;;;1.83;80.69
22104;BME280;11218;48.886;9.426;2023-01-23T10:40:42;99436.53;;;1.69;81.57
22104;BME280;11218;48.886;9.426;2023-01-23T10:43:28;99414.31;;;1.70;81.33
22104;BME280;11218;48.886;9.426;2023-01-23T10:45:56;99419.94;;;1.67;81.32
22104;BME280;11218;48.886;9.426;2023-01-23T10:48:37;99427.91;;;1.67;82.13
22104;BME280;11218;48.886;9.426;2023-01-23T10:51:29;99430.25;;;1.70;82.02
22104;BME280;11218;48.886;9.426;2023-01-23T10:54:15;99415.94;;;1.63;81.80
22104;BME280;11218;48.886;9.426;2023-01-23T10:56:58;99423.06;;;1.62;82.33
22104;BME280;11218;48.886;9.426;2023-01-23T10:59:30;99420.94;;;1.66;83.01
22104;BME280;11218;48.886;9.426;2023-01-23T11:02:16;99415.50;;;1.76;83.54
22104;BME280;11218;48.886;9.426;2023-01-23T11:04:46;99424.81;;;1.80;82.25
22104;BME280;11218;48.886;9.426;2023-01-23T11:07:16;99415.91;;;1.89;80.94
22104;BME280;11218;48.886;9.426;2023-01-23T11:09:50;99409.44;;;1.91;82.01
22104;BME280;11218;48.886;9.426;2023-01-23T11:12:21;99408.59;;;1.91;81.80
22104;BME280;11218;48.886;9.426;2023-01-23T11:14:51;99394.88;;;2.04;81.45
22104;BME280;11218;48.886;9.426;2023-01-23T11:17:37;99397.88;;;2.09;81.03
22104;BME280;11218;48.886;9.426;2023-01-23T11:20:11;99387.56;;;2.06;80.65
22104;BME280;11218;48.886;9.426;2023-01-23T11:22:59;99382.63;;;2.11;81.06
22104;BME280;11218;48.886;9.426;2023-01-23T11:25:31;99370.50;;;2.08;80.76
22104;BME280;11218;48.886;9.426;2023-01-23T11:28:13;99385.44;;;2.09;82.01
22104;BME280;11218;48.886;9.426;2023-01-23T11:30:46;99370.34;;;2.18;82.30
22104;BME280;11218;48.886;9.426;2023-01-23T11:33:41;99370.19;;;2.19;80.93
22104;BME280;11218;48.886;9.426;2023-01-23T11:36:30;99363.88;;;2.12;81.39
22104;BME280;11218;48.886;9.426;2023-01-23T11:39:12;99378.47;;;2.16;81.49
22104;BME280;11218;48.886;9.426;2023-01-23T11:41:45;99374.50;;;2.20;81.50
22104;BME280;11218;48.886;9.426;2023-01-23T11:44:15;99367.84;;;2.24;80.22
22104;BME280;11218;48.886;9.426;2023-01-23T11:47:04;99359.72;;;2.26;80.74
22104;BME280;11218;48.886;9.426;2023-01-23T11:49:52;99365.53;;;2.21;80.90
22104;BME280;11218;48.886;9.426;2023-01-23T11:52:33;99358.38;;;2.14;80.56
22104;BME280;11218;48.886;9.426;2023-01-23T11:55:18;99369.03;;;2.22;80.54
22104;BME280;11218;48.886;9.426;2023-01-23T11:57:59;99361.56;;;2.17;81.36
22104;BME280;11218;48.886;9.426;2023-01-23T12:00:35;99365.19;;;2.08;82.10
22104;BME280;11218;48.886;9.426;2023-01-23T12:03:36;99359.38;;;2.13;81.08
22104;BME280;11218;48.886;9.426;2023-01-23T12:06:20;99363.22;;;2.18;81.91
22104;BME280;11218;48.886;9.426;2023-01-23T12:08:58;99356.25;;;2.17;82.40
22104;BME280;11218;48.886;9.426;2023-01-23T12:11:37;99360.56;;;2.18;82.04
22104;BME280;11218;48.886;9.426;2023-01-23T12:14:15;99363.53;;;2.07;82.05
22104;BME280;11218;48.886;9.426;2023-01-23T12:19:57;99348.09;;;2.27;81.58
22104;BME280;11218;48.886;9.426;2023-01-23T12:22:34;99340.78;;;2.29;81.68
22104;BME280;11218;48.886;9.426;2023-01-23T12:25:17;99337.78;;;2.24;81.60
22104;BME280;11218;48.886;9.426;2023-01-23T12:27:57;99337.97;;;2.30;82.50
22104;BME280;11218;48.886;9.426;2023-01-23T12:33:49;99314.41;;;2.44;81.56
22104;BME280;11218;48.886;9.426;2023-01-23T12:36:43;99311.25;;;2.56;81.20
22104;BME280;11218;48.886;9.426;2023-01-23T12:39:56;99305.94;;;2.56;81.28
22104;BME280;11218;48.886;9.426;2023-01-23T12:42:29;99292.66;;;2.40;80.30
22104;BME280;11218;48.886;9.426;2023-01-23T12:45:04;99299.13;;;2.46;81.38
22104;BME280;11218;48.886;9.426;2023-01-23T12:47:39;99284.84;;;2.47;81.41
22104;BME280;11218;48.886;9.426;2023-01-23T12:50:16;99286.16;;;2.43;81.20
22104;BME280;11218;48.886;9.426;2023-01-23T12:52:50;99280.19;;;2.49;81.62
22104;BME280;11218;48.886;9.426;2023-01-23T12:55:25;99279.53;;;2.55;80.69
22104;BME280;11218;48.886;9.426;2023-01-23T12:57:59;99274.38;;;2.61;80.31
22104;BME280;11218;48.886;9.426;2023-01-23T13:00:46;99269.88;;;2.62;80.86
22104;BME280;11218;48.886;9.426;2023-01-23T13:03:32;99264.25;;;2.57;80.71
22104;BME280;11218;48.886;9.426;2023-01-23T13:06:32;99269.06;;;2.61;80.79
22104;BME280;11218;48.886;9.426;2023-01-23T13:09:11;99278.53;;;2.64;80.53
22104;BME280;11218;48.886;9.426;2023-01-23T13:11:56;99273.69;;;2.68;80.92
22104;BME280;11218;48.886;9.426;2023-01-23T13:14:38;99273.19;;;2.72;80.31
22104;BME280;11218;48.886;9.426;2023-01-23T13:17:38;99265.38;;;2.79;81.52
22104;BME280;11218;48.886;9.426;2023-01-23T13:20:25;99263.72;;;2.78;80.41
22104;BME280;11218;48.886;9.426;2023-01-23T13:23:22;99256.22;;;2.89;80.53
22104;BME280;11218;48.886;9.426;2023-01-23T13:26:22;99267.63;;;2.98;80.55
22104;BME280;11218;48.886;9.426;2023-01-23T13:28:59;99267.09;;;3.11;79.83
22104;BME280;11218;48.886;9.426;2023-01-23T13:31:35;99262.25;;;3.14;79.51
22104;BME280;11218;48.886;9.426;2023-01-23T13:34:35;99274.38;;;3.17;79.74
22104;BME280;11218;48.886;9.426;2023-01-23T13:40:17;99267.88;;;3.19;79.90
22104;BME280;11218;48.886;9.426;2023-01-23T13:42:45;99270.84;;;3.24;79.70
22104;BME280;11218;48.886;9.426;2023-01-23T13:45:32;99273.88;;;3.13;79.49
22104;BME280;11218;48.886;9.426;2023-01-23T13:48:28;99276.22;;;3.16;79.99